Time;durP1;ratioP1;P1;durP2;ratioP2;P2;SDS_P1;SDS_P2;PMS_P1;PMS_P2;Temp;Humidity;BMP_temperature;BMP_pressure;BME280_temperature;BME280_humidity;BME280_pressure;Samples;Min_cycle;Max_cycle;Signal;HPM_P1;HPM_P2
2020/12/22 05:02:52;;;;;;;4.78;2.50;;;;;;;5.44;83.65;99676.78;5027943;23;20478;-54
2020/12/22 05:05:19;;;;;;;4.22;2.97;;;;;;;5.48;83.31;99690.63;4991161;28;20277;-54
2020/12/22 05:07:44;;;;;;;4.38;2.90;;;;;;;5.50;83.33;99693.09;4986629;28;20675;-54
2020/12/22 05:10:12;;;;;;;4.47;2.67;;;;;;;5.48;83.51;99698.66;4989558;28;20041;-54
2020/12/22 05:12:41;;;;;;;4.93;3.20;;;;;;;5.40;83.41;99690.78;4989478;28;20086;-54
2020/12/22 05:15:08;;;;;;;4.47;2.80;;;;;;;5.46;83.71;99698.84;4971129;28;20057;-54
2020/12/22 05:17:43;;;;;;;5.45;3.20;;;;;;;5.44;83.84;99708.13;4970147;28;20071;-54
2020/12/22 05:20:21;;;;;;;3.88;2.60;;;;;;;5.47;84.03;99708.56;4987626;28;20407;-54
2020/12/22 05:22:47;;;;;;;6.15;2.75;;;;;;;5.42;84.04;99705.63;4989578;28;20037;-55
2020/12/22 05:25:19;;;;;;;5.28;2.65;;;;;;;5.34;84.50;99699.59;4974466;28;20037;-56
2020/12/22 05:27:49;;;;;;;3.95;2.80;;;;;;;5.38;84.10;99704.38;4968851;28;20068;-55
2020/12/22 05:30:20;;;;;;;3.90;2.95;;;;;;;5.39;85.12;99686.44;4986522;28;20046;-55
2020/12/22 05:32:51;;;;;;;4.47;2.67;;;;;;;5.54;84.94;99694.38;4988533;28;20064;-53
2020/12/22 05:35:18;;;;;;;3.65;2.85;;;;;;;5.52;84.18;99699.94;4987202;28;20470;-55
2020/12/22 05:37:46;;;;;;;4.55;3.13;;;;;;;5.64;83.44;99692.16;4989108;28;20061;-55
2020/12/22 05:40:15;;;;;;;4.90;2.92;;;;;;;5.77;84.17;99676.91;4990253;28;20128;-54
2020/12/22 05:42:42;;;;;;;4.65;3.50;;;;;;;5.58;84.65;99679.53;4974181;28;20049;-53
2020/12/22 05:45:08;;;;;;;3.85;2.65;;;;;;;5.76;84.96;99671.78;4974318;28;20141;-53
2020/12/22 05:47:34;;;;;;;4.57;3.15;;;;;;;5.51;85.58;99655.38;4990464;28;20072;-55
2020/12/22 05:50:02;;;;;;;5.88;3.47;;;;;;;5.97;84.29;99655.56;4990210;28;20049;-55
2020/12/22 05:52:29;;;;;;;7.45;3.92;;;;;;;5.76;85.33;99661.03;4990281;28;20050;-55
2020/12/22 05:54:58;;;;;;;4.65;3.03;;;;;;;5.72;84.76;99654.41;4990448;28;20034;-55
2020/12/22 05:57:29;;;;;;;4.00;2.80;;;;;;;5.80;84.85;99673.00;4974193;28;20502;-56
2020/12/22 05:59:56;;;;;;;4.00;2.78;;;;;;;5.72;84.36;99670.50;4987437;28;20073;-54
2020/12/22 06:02:29;;;;;;;5.40;3.10;;;;;;;5.72;84.52;99662.47;4989917;28;20599;-56
2020/12/22 06:04:59;;;;;;;4.05;3.05;;;;;;;5.71;84.72;99667.00;4990130;28;20038;-55
2020/12/22 06:07:26;;;;;;;7.60;3.15;;;;;;;5.78;84.65;99667.00;4971217;28;20096;-55
2020/12/22 06:09:52;;;;;;;4.95;2.75;;;;;;;5.75;85.11;99660.22;4986224;28;20048;-54
2020/12/22 06:12:20;;;;;;;5.93;3.47;;;;;;;5.75;84.81;99654.84;4970852;28;20586;-55
2020/12/22 06:14:53;;;;;;;4.55;2.97;;;;;;;5.78;85.01;99661.63;4972421;28;20054;-55
2020/12/22 06:17:22;;;;;;;4.13;2.95;;;;;;;5.76;84.74;99655.69;5006786;28;22666;-55
2020/12/22 06:19:48;;;;;;;4.53;2.85;;;;;;;5.77;84.65;99657.31;4971260;28;20511;-53
2020/12/22 06:22:18;;;;;;;6.03;3.50;;;;;;;5.81;84.55;99651.34;4965231;28;20439;-55
2020/12/22 06:24:51;;;;;;;5.47;3.28;;;;;;;5.83;84.98;99641.25;4967572;28;20038;-54
2020/12/22 06:27:16;;;;;;;5.63;3.30;;;;;;;5.82;85.08;99638.75;4968133;28;20074;-56
2020/12/22 06:29:44;;;;;;;5.05;3.75;;;;;;;5.91;84.84;99634.06;4971126;28;20080;-55
2020/12/22 06:32:26;;;;;;;8.80;4.90;;;;;;;6.04;84.94;99609.94;4994517;28;20045;-54
2020/12/22 06:35:27;;;;;;;6.57;3.72;;;;;;;6.09;84.03;99611.00;4971449;28;20487;-54
2020/12/22 06:37:54;;;;;;;5.72;3.80;;;;;;;6.31;84.58;99621.53;4972860;28;20380;-55
2020/12/22 06:40:53;;;;;;;6.15;4.43;;;;;;;6.27;83.00;99607.69;4986080;28;20427;-55
2020/12/22 06:43:38;;;;;;;7.00;4.50;;;;;;;6.25;83.16;99611.59;4963415;28;20053;-55
2020/12/22 06:46:03;;;;;;;7.55;3.97;;;;;;;6.57;82.77;99609.97;4971643;28;20046;-55
2020/12/22 06:48:42;;;;;;;6.25;4.25;;;;;;;6.23;83.34;99606.44;4973634;28;20038;-55
2020/12/22 06:51:29;;;;;;;7.88;5.18;;;;;;;6.20;83.26;99608.72;4971610;28;20046;-55
2020/12/22 06:53:55;;;;;;;6.88;4.72;;;;;;;6.09;83.72;99608.31;4970388;28;20033;-55
2020/12/22 06:56:40;;;;;;;9.30;6.05;;;;;;;6.60;83.82;99602.31;4971935;28;20046;-53
2020/12/22 06:59:09;;;;;;;10.23;6.03;;;;;;;6.64;83.35;99608.94;4987352;28;20043;-56
2020/12/22 07:01:36;;;;;;;8.65;6.07;;;;;;;6.22;84.02;99599.44;4972956;28;20172;-54
2020/12/22 07:04:11;;;;;;;9.45;5.68;;;;;;;6.20;84.81;99609.56;4989229;28;20564;-54
2020/12/22 07:06:43;;;;;;;10.95;6.57;;;;;;;6.10;85.26;99601.09;4971694;28;20414;-54
2020/12/22 07:09:17;;;;;;;9.80;5.93;;;;;;;6.17;85.48;99605.41;4970856;28;20115;-55
2020/12/22 07:11:43;;;;;;;14.45;8.82;;;;;;;6.17;85.76;99585.81;4968432;28;20537;-55
2020/12/22 07:14:12;;;;;;;15.43;9.05;;;;;;;6.44;85.58;99589.31;4989157;28;20042;-54
2020/12/22 07:16:51;;;;;;;12.85;6.78;;;;;;;6.72;84.92;99597.13;4971629;28;20034;-55
2020/12/22 07:19:31;;;;;;;11.10;6.45;;;;;;;6.79;84.46;99593.41;4971130;28;20542;-54
2020/12/22 07:22:03;;;;;;;14.02;8.55;;;;;;;6.80;84.00;99586.19;4984608;28;20049;-53
2020/12/22 07:24:30;;;;;;;13.05;6.78;;;;;;;7.27;82.75;99584.97;4973006;28;20034;-54
2020/12/22 07:26:57;;;;;;;10.80;6.88;;;;;;;6.74;83.16;99592.38;4988224;28;20052;-54
2020/12/22 07:29:23;;;;;;;11.05;7.88;;;;;;;6.47;84.11;99578.97;4969775;28;20137;-56
2020/12/22 07:31:49;;;;;;;13.73;8.30;;;;;;;6.31;84.87;99582.09;4986390;28;20120;-54
2020/12/22 07:34:17;;;;;;;10.85;6.95;;;;;;;6.78;84.51;99586.38;5005982;28;20506;-55
2020/12/22 07:36:43;;;;;;;11.68;6.80;;;;;;;6.57;83.51;99569.69;4987731;28;20042;-55
2020/12/22 07:39:31;;;;;;;12.20;7.28;;;;;;;6.28;84.89;99571.75;5007208;28;20049;-54
2020/12/22 07:42:11;;;;;;;10.55;6.10;;;;;;;6.70;84.90;99580.38;5009072;28;20458;-55
2020/12/22 07:44:39;;;;;;;8.68;5.05;;;;;;;6.87;84.23;99590.50;5003662;28;20040;-54
2020/12/22 07:47:06;;;;;;;7.70;4.50;;;;;;;7.03;83.38;99591.09;5007106;28;20049;-55
2020/12/22 07:49:32;;;;;;;7.32;4.50;;;;;;;7.74;83.09;99599.88;5010267;28;20044;-56
2020/12/22 07:51:57;;;;;;;7.65;4.63;;;;;;;7.30;81.51;99594.50;5010292;28;20376;-54
2020/12/22 07:54:26;;;;;;;6.20;4.10;;;;;;;7.46;81.18;99596.72;5011476;28;20088;-56
2020/12/22 07:56:57;;;;;;;5.35;3.70;;;;;;;7.30;82.01;99603.38;4997351;28;20099;-54
2020/12/22 07:59:23;;;;;;;4.57;3.50;;;;;;;7.23;82.37;99605.28;4994331;28;20041;-54
2020/12/22 08:01:52;;;;;;;6.10;3.67;;;;;;;7.36;82.46;99609.78;4994675;28;20052;-54
2020/12/22 08:04:25;;;;;;;4.22;3.35;;;;;;;7.52;81.85;99604.75;4989195;28;20615;-56
2020/12/22 08:07:03;;;;;;;5.43;3.60;;;;;;;7.57;82.13;99598.72;4992420;28;20390;-54
2020/12/22 08:09:32;;;;;;;5.93;3.78;;;;;;;7.45;82.02;99601.25;4991562;28;20410;-53
2020/12/22 08:12:02;;;;;;;4.15;2.53;;;;;;;7.55;82.37;99601.63;5002917;28;20060;-55
2020/12/22 08:14:30;;;;;;;4.65;3.25;;;;;;;7.48;82.36;99611.59;5009714;28;20044;-58
2020/12/22 08:17:00;;;;;;;4.07;2.85;;;;;;;7.45;82.59;99611.19;4986173;28;20042;-55
2020/12/22 08:19:34;;;;;;;3.88;2.55;;;;;;;7.69;82.67;99602.38;5006185;28;20049;-55
2020/12/22 08:22:00;;;;;;;4.18;1.95;;;;;;;7.77;82.19;99598.63;5000898;28;20049;-56
2020/12/22 08:24:29;;;;;;;3.42;2.60;;;;;;;7.70;82.30;99606.72;4985404;28;20125;-53
2020/12/22 08:26:55;;;;;;;3.25;1.83;;;;;;;7.64;82.54;99611.09;4971375;28;20050;-56
2020/12/22 08:29:21;;;;;;;6.22;3.67;;;;;;;7.75;83.02;99625.72;4970693;28;20126;-55
2020/12/22 08:31:47;;;;;;;10.63;5.45;;;;;;;7.45;83.35;99635.41;4971273;28;20116;-55
2020/12/22 08:34:17;;;;;;;5.93;4.07;;;;;;;7.09;84.62;99633.22;4982579;28;20038;-53
2020/12/22 08:36:44;;;;;;;6.57;4.20;;;;;;;7.16;84.38;99626.78;5003642;28;20038;-55
2020/12/22 08:39:18;;;;;;;5.78;3.83;;;;;;;7.29;83.94;99625.94;4973046;28;20050;-55
2020/12/22 08:41:49;;;;;;;7.63;3.80;;;;;;;7.41;83.34;99621.53;4988577;28;20096;-55
2020/12/22 08:44:16;;;;;;;5.67;4.03;;;;;;;7.45;83.48;99620.09;4974963;28;20045;-55
2020/12/22 08:46:42;;;;;;;5.85;3.53;;;;;;;7.32;84.11;99608.56;4984379;28;20041;-54
2020/12/22 08:49:10;;;;;;;6.15;2.80;;;;;;;7.35;84.52;99608.97;4992187;28;20333;-55
2020/12/22 08:51:36;;;;;;;4.55;3.25;;;;;;;7.57;84.02;99606.78;4992809;28;20056;-55
2020/12/22 08:54:03;;;;;;;4.88;2.92;;;;;;;7.72;83.37;99601.97;4991017;28;20045;-55
2020/12/22 08:56:29;;;;;;;4.47;3.40;;;;;;;7.80;83.17;99590.94;4994301;28;20047;-55
2020/12/22 08:59:05;;;;;;;5.10;3.25;;;;;;;7.85;84.05;99596.47;5009328;28;20044;-56
2020/12/22 09:01:41;;;;;;;3.00;1.80;;;;;;;7.96;84.19;99585.03;4998049;28;20034;-54
2020/12/22 09:04:08;;;;;;;4.65;2.30;;;;;;;8.15;84.03;99591.34;4971669;28;20050;-55
2020/12/22 09:06:38;;;;;;;2.90;2.17;;;;;;;8.23;83.60;99599.13;4969906;28;20026;-56
2020/12/22 09:09:08;;;;;;;3.88;2.47;;;;;;;8.26;83.34;99595.19;4971192;28;20038;-53
2020/12/22 09:11:34;;;;;;;4.95;2.92;;;;;;;8.30;83.20;99599.94;4989424;28;20072;-57
2020/12/22 09:14:07;;;;;;;4.35;2.83;;;;;;;8.32;83.37;99597.84;4986107;28;20502;-53
2020/12/22 09:16:54;;;;;;;4.20;2.25;;;;;;;8.33;84.23;99593.28;4988603;28;20045;-53
2020/12/22 09:19:22;;;;;;;3.15;2.25;;;;;;;8.53;83.33;99602.03;5007031;28;20387;-53
2020/12/22 09:21:57;;;;;;;4.47;2.50;;;;;;;8.51;84.32;99603.31;4987845;28;20128;-55
2020/12/22 09:24:24;;;;;;;2.10;1.90;;;;;;;8.59;84.03;99601.16;4972523;28;20165;-53
2020/12/22 09:27:04;;;;;;;4.00;1.88;;;;;;;8.67;84.98;99591.94;4971184;28;20164;-52
2020/12/22 09:29:30;;;;;;;3.88;2.15;;;;;;;8.77;85.02;99578.00;4989264;28;20042;-57
2020/12/22 09:31:58;;;;;;;4.22;1.85;;;;;;;8.83;84.52;99586.00;4990286;28;20042;-55
2020/12/22 09:34:25;;;;;;;6.78;1.90;;;;;;;8.85;86.75;99583.09;4972185;28;20116;-54
2020/12/22 09:36:53;;;;;;;2.40;1.60;;;;;;;8.95;85.72;99580.69;4972979;28;20042;-55
2020/12/22 09:39:19;;;;;;;13.35;4.60;;;;;;;8.71;84.88;99574.31;4986039;28;20125;-55
2020/12/22 09:41:44;;;;;;;2.67;1.88;;;;;;;8.86;83.28;99574.78;4989120;28;20037;-54
2020/12/22 09:44:10;;;;;;;3.10;2.15;;;;;;;8.79;83.50;99570.47;4985800;28;20130;-52
2020/12/22 09:46:36;;;;;;;3.78;2.40;;;;;;;8.75;83.18;99570.13;4989157;28;20045;-54
2020/12/22 09:49:03;;;;;;;3.30;2.08;;;;;;;8.89;83.42;99576.19;4988595;28;20058;-54
2020/12/22 09:51:29;;;;;;;3.50;2.40;;;;;;;9.00;83.13;99576.25;4990836;28;20038;-54
2020/12/22 09:53:55;;;;;;;3.45;2.20;;;;;;;9.04;82.49;99565.84;4985357;28;20558;-53
2020/12/22 09:56:20;;;;;;;3.08;1.88;;;;;;;9.06;82.40;99569.97;5005943;28;20109;-54
2020/12/22 09:58:46;;;;;;;3.38;2.30;;;;;;;9.04;85.54;99580.16;4989293;28;20061;-53
2020/12/22 10:01:11;;;;;;;4.63;2.45;;;;;;;9.05;83.63;99587.22;4988761;28;20073;-53
2020/12/22 10:03:37;;;;;;;2.28;1.90;;;;;;;9.08;82.52;99583.25;5004495;28;20168;-53
2020/12/22 10:06:02;;;;;;;3.72;2.15;;;;;;;8.98;82.92;99578.38;4988107;28;20045;-53
2020/12/22 10:08:27;;;;;;;3.80;2.25;;;;;;;8.97;83.12;99574.03;4979863;28;20495;-53
2020/12/22 10:10:53;;;;;;;3.13;2.08;;;;;;;9.05;83.56;99575.59;4998268;28;20511;-53
2020/12/22 10:13:19;;;;;;;3.30;2.13;;;;;;;9.05;83.43;99576.41;5004825;28;20053;-53
2020/12/22 10:15:45;;;;;;;2.97;2.28;;;;;;;9.13;83.04;99574.47;4987905;28;20038;-53
2020/12/22 10:18:11;;;;;;;3.90;2.10;;;;;;;9.13;83.16;99569.91;5004907;28;20507;-54
2020/12/22 10:20:37;;;;;;;2.72;1.98;;;;;;;9.20;82.92;99576.06;4988212;28;20400;-53
2020/12/22 10:23:04;;;;;;;2.80;2.15;;;;;;;9.17;83.68;99578.38;4997966;28;20050;-54
2020/12/22 10:25:30;;;;;;;3.20;2.40;;;;;;;9.28;83.03;99588.41;4973565;28;20324;-57
2020/12/22 10:27:55;;;;;;;3.25;2.42;;;;;;;9.34;82.70;99584.81;4985871;28;20060;-53
2020/12/22 10:30:21;;;;;;;4.97;3.10;;;;;;;9.32;83.19;99581.53;4960649;28;20444;-53
2020/12/22 10:32:47;;;;;;;3.38;2.50;;;;;;;9.55;82.11;99578.13;4953819;28;20045;-54
2020/12/22 10:35:13;;;;;;;5.25;2.50;;;;;;;9.69;81.88;99574.19;4969881;28;20062;-54
2020/12/22 10:37:39;;;;;;;4.30;2.90;;;;;;;9.81;82.36;99575.84;5005120;28;20038;-53
2020/12/22 10:40:05;;;;;;;4.03;2.45;;;;;;;9.90;81.94;99580.94;5007063;28;20107;-53
2020/12/22 10:42:30;;;;;;;6.95;3.65;;;;;;;9.92;81.18;99584.25;4991943;28;20045;-56
2020/12/22 10:44:56;;;;;;;4.85;2.90;;;;;;;9.92;82.08;99573.44;5008202;28;20045;-53
2020/12/22 10:47:22;;;;;;;3.65;2.55;;;;;;;10.05;82.30;99565.94;5008958;28;20033;-53
2020/12/22 10:49:48;;;;;;;3.30;2.50;;;;;;;10.25;81.70;99570.25;5004796;28;20117;-54
2020/12/22 10:52:15;;;;;;;2.95;2.00;;;;;;;10.44;81.52;99571.81;4987936;28;20075;-53
2020/12/22 10:54:40;;;;;;;1.05;0.77;;;;;;;10.86;81.18;99554.41;4988185;28;20049;-55
2020/12/22 10:57:06;;;;;;;0.22;0.20;;;;;;;11.35;79.81;99560.31;4971392;28;20129;-54
2020/12/22 10:59:31;;;;;;;0.20;0.20;;;;;;;11.52;79.19;99563.09;4987804;28;20034;-56
2020/12/22 11:01:58;;;;;;;0.30;0.30;;;;;;;11.68;78.63;99566.91;5000076;28;20075;-54
2020/12/22 11:04:24;;;;;;;0.40;0.20;;;;;;;11.90;79.19;99563.28;4991646;28;20050;-55
2020/12/22 11:07:13;;;;;;;0.85;0.30;;;;;;;12.06;78.49;99567.09;4994423;28;20060;-53
2020/12/22 11:09:38;;;;;;;0.20;0.20;;;;;;;12.24;78.64;99574.19;4954714;28;20054;-54
2020/12/22 11:12:04;;;;;;;0.10;0.10;;;;;;;12.30;77.88;99557.78;4990628;28;20037;-53
2020/12/22 11:14:29;;;;;;;1.23;0.20;;;;;;;12.27;74.53;99557.44;4977671;28;20038;-53
2020/12/22 11:16:54;;;;;;;0.73;0.20;;;;;;;12.45;76.80;99565.34;4971577;28;20045;-52
2020/12/22 11:19:20;;;;;;;2.28;0.20;;;;;;;12.46;75.94;99555.31;4992093;28;20042;-56
2020/12/22 11:21:45;;;;;;;1.10;0.30;;;;;;;12.29;75.57;99558.00;4974897;28;20066;-55
2020/12/22 11:24:12;;;;;;;0.10;0.10;;;;;;;12.37;76.06;99557.59;5010130;28;20650;-54
2020/12/22 11:26:38;;;;;;;0.20;0.10;;;;;;;12.56;76.89;99564.44;4991452;28;20038;-54
2020/12/22 11:29:04;;;;;;;1.38;0.20;;;;;;;12.56;75.71;99560.88;4958984;28;20399;-55
2020/12/22 11:31:30;;;;;;;0.52;0.10;;;;;;;12.71;74.78;99558.38;4993233;28;20076;-54
2020/12/22 11:33:56;;;;;;;0.28;0.20;;;;;;;12.84;74.90;99546.38;4982145;28;20074;-57
2020/12/22 11:36:22;;;;;;;0.50;0.25;;;;;;;12.84;73.94;99554.50;5001004;28;20572;-54
2020/12/22 11:38:48;;;;;;;1.50;0.30;;;;;;;12.88;74.17;99553.75;5024941;28;20056;-54
2020/12/22 11:41:29;;;;;;;0.22;0.20;;;;;;;12.96;74.61;99549.78;4990528;28;20144;-54
2020/12/22 11:43:55;;;;;;;0.30;0.20;;;;;;;13.13;73.39;99556.00;5007744;28;20450;-54
2020/12/22 11:46:22;;;;;;;0.40;0.17;;;;;;;13.13;73.58;99550.59;5010057;28;20083;-55
2020/12/22 11:48:48;;;;;;;2.00;0.20;;;;;;;13.14;70.90;99557.69;5008536;28;20069;-54
2020/12/22 11:51:15;;;;;;;0.20;0.20;;;;;;;13.23;72.88;99555.34;4995475;28;20040;-55
2020/12/22 11:53:42;;;;;;;0.20;0.20;;;;;;;13.35;73.65;99556.03;4995190;28;20173;-54
2020/12/22 11:56:08;;;;;;;0.20;0.17;;;;;;;13.31;71.21;99561.16;5026912;28;20056;-56
2020/12/22 11:58:34;;;;;;;0.73;0.20;;;;;;;13.37;73.48;99557.44;5006933;28;20554;-56
2020/12/22 12:01:00;;;;;;;0.22;0.22;;;;;;;13.56;72.10;99567.97;5012191;28;20092;-55
2020/12/22 12:03:26;;;;;;;0.20;0.10;;;;;;;13.65;71.28;99564.53;4993120;28;20042;-55
2020/12/22 12:05:53;;;;;;;0.17;0.10;;;;;;;13.66;72.21;99576.22;4994374;28;20034;-55
2020/12/22 12:08:20;;;;;;;0.28;0.22;;;;;;;13.64;72.03;99560.16;5000109;28;20045;-56
2020/12/22 12:10:48;;;;;;;0.50;0.50;;;;;;;13.68;72.02;99557.78;4990861;28;20026;-55
2020/12/22 12:13:13;;;;;;;0.85;0.13;;;;;;;13.79;70.45;99543.22;5009169;28;20045;-55
2020/12/22 12:15:39;;;;;;;0.20;0.20;;;;;;;13.66;71.52;99560.75;4980934;28;20112;-55
2020/12/22 12:18:04;;;;;;;0.85;0.10;;;;;;;13.72;71.86;99559.75;4978821;28;20049;-55
2020/12/22 12:20:30;;;;;;;1.45;0.10;;;;;;;13.76;71.90;99570.91;4966189;28;20048;-58
2020/12/22 12:22:55;;;;;;;0.20;0.10;;;;;;;13.87;71.45;99563.66;4965176;28;20100;-55
2020/12/22 12:25:21;;;;;;;0.20;0.20;;;;;;;13.76;71.02;99569.00;4963165;28;20065;-53
2020/12/22 12:27:46;;;;;;;0.20;0.20;;;;;;;13.86;71.88;99571.00;4959980;28;20133;-54
2020/12/22 12:30:13;;;;;;;0.28;0.20;;;;;;;13.67;70.38;99569.72;4980785;28;20053;-56
2020/12/22 12:32:39;;;;;;;0.20;0.10;;;;;;;13.60;72.59;99582.69;4964963;28;20475;-54
2020/12/22 12:35:05;;;;;;;0.20;0.10;;;;;;;13.53;72.62;99585.56;4986281;28;20076;-55
2020/12/22 12:37:30;;;;;;;0.30;0.15;;;;;;;13.37;71.77;99581.06;4976642;28;20049;-57
2020/12/22 12:39:57;;;;;;;0.15;0.15;;;;;;;13.36;72.86;99596.53;4973611;28;20092;-55
2020/12/22 12:42:27;;;;;;;0.25;0.10;;;;;;;13.37;71.82;99586.47;4974313;28;20042;-54
2020/12/22 12:44:53;;;;;;;0.20;0.20;;;;;;;13.31;70.23;99584.75;4973216;28;20057;-54
2020/12/22 12:47:19;;;;;;;0.10;0.10;;;;;;;13.25;71.00;99573.03;4973940;28;20376;-54
2020/12/22 12:49:45;;;;;;;0.20;0.20;;;;;;;13.17;72.78;99572.63;4974534;28;20065;-55
2020/12/22 12:52:12;;;;;;;0.20;0.20;;;;;;;13.29;70.44;99587.72;4972510;28;20314;-54
2020/12/22 12:54:37;;;;;;;0.15;0.10;;;;;;;13.32;71.54;99583.69;4990408;28;20038;-54
2020/12/22 12:57:03;;;;;;;0.50;0.20;;;;;;;13.18;71.27;99590.56;4990742;28;20040;-55
2020/12/22 12:59:28;;;;;;;0.63;0.20;;;;;;;13.12;71.22;99592.38;4972398;28;20435;-54
2020/12/22 13:01:54;;;;;;;0.30;0.30;;;;;;;13.01;72.09;99588.69;4987492;28;20044;-54
2020/12/22 13:04:19;;;;;;;0.35;0.17;;;;;;;12.97;72.24;99597.56;4969549;28;20449;-55
2020/12/22 13:06:46;;;;;;;0.38;0.20;;;;;;;12.93;73.00;99586.38;4972278;28;20042;-55
2020/12/22 13:09:13;;;;;;;0.80;0.30;;;;;;;13.01;72.77;99596.84;4973035;28;20054;-55
2020/12/22 13:11:40;;;;;;;0.20;0.20;;;;;;;13.36;70.34;99591.09;4978483;28;20123;-56
2020/12/22 13:14:06;;;;;;;1.23;0.20;;;;;;;13.17;69.63;99602.47;4991263;28;20045;-55
2020/12/22 13:16:33;;;;;;;0.20;0.13;;;;;;;13.17;72.43;99587.03;4977865;28;20142;-54
2020/12/22 13:18:59;;;;;;;1.10;0.55;;;;;;;13.10;72.45;99602.66;4970144;28;20050;-54
2020/12/22 13:21:25;;;;;;;0.80;0.30;;;;;;;13.00;72.95;99602.50;4953944;28;20053;-54
2020/12/22 13:23:51;;;;;;;1.17;0.10;;;;;;;13.01;73.10;99599.53;4963907;28;20258;-56
2020/12/22 13:26:19;;;;;;;0.98;0.20;;;;;;;13.00;73.55;99605.22;4964912;28;20046;-56
2020/12/22 13:28:45;;;;;;;0.20;0.20;;;;;;;12.93;72.80;99599.13;4971468;28;20395;-54
2020/12/22 13:31:10;;;;;;;0.55;0.20;;;;;;;12.97;70.84;99611.97;4987803;28;20056;-54
2020/12/22 13:33:36;;;;;;;1.10;0.65;;;;;;;12.97;69.76;99597.56;5019656;28;20033;-55
2020/12/22 13:36:03;;;;;;;0.77;0.30;;;;;;;12.95;72.84;99599.69;4989967;28;20038;-55
2020/12/22 13:38:29;;;;;;;0.40;0.20;;;;;;;12.92;73.17;99592.88;4974682;28;20045;-55
2020/12/22 13:40:58;;;;;;;0.35;0.20;;;;;;;12.82;73.03;99594.63;4970349;28;20391;-55
2020/12/22 13:43:27;;;;;;;2.20;0.20;;;;;;;12.81;72.73;99596.50;4994087;28;20073;-55
2020/12/22 13:45:53;;;;;;;0.25;0.10;;;;;;;12.78;73.15;99605.16;5006685;28;20041;-54
2020/12/22 13:48:19;;;;;;;0.98;0.30;;;;;;;12.78;70.79;99605.16;5005642;28;20304;-55
2020/12/22 13:50:44;;;;;;;0.40;0.20;;;;;;;12.80;73.06;99610.34;4989517;28;20526;-54
2020/12/22 13:53:10;;;;;;;1.20;0.30;;;;;;;12.78;73.19;99623.34;5004355;28;20041;-56
2020/12/22 13:55:36;;;;;;;0.15;0.10;;;;;;;12.77;72.55;99613.56;4989872;28;20041;-55
2020/12/22 13:58:01;;;;;;;1.23;0.10;;;;;;;12.73;73.92;99624.06;5023133;28;20098;-54
2020/12/22 14:00:27;;;;;;;0.85;0.20;;;;;;;12.65;73.88;99624.50;5023285;28;20030;-54
2020/12/22 14:02:53;;;;;;;8.75;0.63;;;;;;;12.61;74.15;99626.03;4988864;28;20083;-55
2020/12/22 14:05:19;;;;;;;0.10;0.10;;;;;;;12.70;73.14;99627.25;5004706;28;20458;-55
2020/12/22 14:07:45;;;;;;;1.50;0.20;;;;;;;12.74;73.79;99633.84;4989349;28;20041;-54
2020/12/22 14:10:10;;;;;;;0.43;0.15;;;;;;;12.79;73.41;99643.97;4981407;28;20033;-54
2020/12/22 14:12:36;;;;;;;0.63;0.28;;;;;;;12.74;74.38;99633.84;5000485;28;20399;-53
2020/12/22 14:15:02;;;;;;;0.80;0.45;;;;;;;12.72;72.75;99627.84;4987089;28;20039;-54
2020/12/22 14:17:28;;;;;;;0.43;0.30;;;;;;;12.65;73.96;99629.91;5007580;28;20376;-54
2020/12/22 14:19:54;;;;;;;5.00;0.40;;;;;;;12.59;74.50;99634.41;4988708;28;20084;-54
2020/12/22 14:22:19;;;;;;;0.65;0.20;;;;;;;12.58;73.42;99637.38;4989336;28;20524;-56
2020/12/22 14:24:44;;;;;;;0.28;0.20;;;;;;;12.53;72.71;99627.28;5006734;28;20041;-56
2020/12/22 14:27:10;;;;;;;0.38;0.20;;;;;;;12.50;73.68;99646.75;5003617;28;20055;-54
2020/12/22 14:29:35;;;;;;;0.52;0.25;;;;;;;12.46;73.79;99636.66;5006621;28;20037;-54
2020/12/22 14:32:01;;;;;;;0.17;0.17;;;;;;;12.43;73.54;99647.97;4990293;28;20072;-54
2020/12/22 14:34:28;;;;;;;0.40;0.30;;;;;;;12.43;73.40;99654.22;4989767;28;20118;-55
2020/12/22 14:36:54;;;;;;;2.17;0.40;;;;;;;12.41;73.30;99647.41;5024013;28;20033;-53
2020/12/22 14:39:21;;;;;;;1.35;0.40;;;;;;;12.33;74.08;99654.06;4984341;28;20403;-54
2020/12/22 14:41:49;;;;;;;6.45;0.85;;;;;;;12.41;74.23;99660.94;4993839;28;20042;-55
2020/12/22 14:44:17;;;;;;;1.40;0.50;;;;;;;12.43;73.78;99666.97;4999531;28;20427;-55
2020/12/22 14:46:44;;;;;;;1.08;0.60;;;;;;;12.35;74.55;99668.16;4996209;28;20525;-55
2020/12/22 14:49:11;;;;;;;1.30;0.50;;;;;;;12.40;74.12;99654.69;4967634;28;20144;-55
2020/12/22 14:51:38;;;;;;;4.30;0.85;;;;;;;12.46;72.71;99664.56;5002231;28;20044;-55
2020/12/22 14:54:04;;;;;;;0.38;0.30;;;;;;;12.48;72.04;99664.31;4983251;28;20081;-54
2020/12/22 14:56:30;;;;;;;2.22;0.40;;;;;;;12.39;74.18;99669.31;4988666;28;20032;-58
2020/12/22 14:58:55;;;;;;;0.75;0.68;;;;;;;12.40;73.59;99667.44;4999822;28;20042;-54
2020/12/22 15:01:24;;;;;;;1.98;0.40;;;;;;;12.37;73.17;99676.06;4970036;28;20038;-54
2020/12/22 15:03:50;;;;;;;1.60;0.30;;;;;;;12.38;74.07;99686.66;4966621;28;20052;-55
2020/12/22 15:06:18;;;;;;;0.70;0.55;;;;;;;12.35;74.73;99684.41;4987062;28;20041;-54
2020/12/22 15:08:46;;;;;;;2.72;0.28;;;;;;;12.27;74.70;99692.97;4984661;28;20034;-54
2020/12/22 15:11:12;;;;;;;0.32;0.28;;;;;;;12.24;73.23;99685.31;4980036;28;20526;-54
2020/12/22 15:13:38;;;;;;;0.40;0.20;;;;;;;12.22;73.99;99692.88;4985923;28;20118;-54
2020/12/22 15:16:03;;;;;;;1.20;0.20;;;;;;;12.22;74.52;99698.28;5020762;28;20121;-54
2020/12/22 15:18:29;;;;;;;7.90;0.50;;;;;;;12.28;73.88;99698.13;5023757;28;20034;-55
2020/12/22 15:20:54;;;;;;;3.72;0.50;;;;;;;12.25;75.00;99700.50;5003923;28;20045;-55
2020/12/22 15:23:23;;;;;;;0.35;0.25;;;;;;;12.28;74.87;99705.44;4988237;28;20092;-54
2020/12/22 15:25:48;;;;;;;0.82;0.25;;;;;;;12.22;75.37;99723.50;5006828;28;20107;-54
2020/12/22 15:28:14;;;;;;;0.32;0.20;;;;;;;12.22;74.85;99720.81;5020285;28;20049;-54
2020/12/22 15:30:40;;;;;;;2.20;0.35;;;;;;;12.20;74.49;99735.66;4989058;28;20045;-55
2020/12/22 15:33:06;;;;;;;1.02;0.30;;;;;;;12.20;74.88;99728.34;4989643;28;20052;-56
2020/12/22 15:35:31;;;;;;;1.00;0.30;;;;;;;12.23;75.63;99730.56;4998500;28;20903;-55
2020/12/22 15:37:57;;;;;;;0.90;0.10;;;;;;;12.23;74.07;99729.75;4986819;28;20042;-54
2020/12/22 15:40:22;;;;;;;0.30;0.30;;;;;;;12.23;74.70;99730.56;4969955;28;20130;-54
2020/12/22 15:42:48;;;;;;;2.78;0.20;;;;;;;12.12;76.54;99739.56;4984328;28;20077;-56
2020/12/22 15:45:14;;;;;;;1.05;0.30;;;;;;;12.15;75.44;99724.69;4985694;28;20050;-54
2020/12/22 15:47:40;;;;;;;0.90;0.40;;;;;;;12.18;73.62;99735.06;4983644;28;20034;-55
2020/12/22 15:50:05;;;;;;;0.40;0.32;;;;;;;12.15;76.11;99738.25;4986559;28;20549;-56
2020/12/22 15:52:31;;;;;;;0.30;0.30;;;;;;;12.16;75.71;99732.59;4970145;28;20042;-54
2020/12/22 15:54:56;;;;;;;1.40;0.30;;;;;;;12.18;75.73;99741.31;4969321;28;20041;-54
2020/12/22 15:57:22;;;;;;;1.30;0.30;;;;;;;12.17;77.73;99744.25;4968689;28;20030;-54
2020/12/22 15:59:47;;;;;;;0.65;0.50;;;;;;;12.02;77.88;99743.94;4969756;28;20045;-53
2020/12/22 16:02:13;;;;;;;2.15;0.40;;;;;;;11.98;78.03;99740.91;4970491;28;20042;-53
2020/12/22 16:04:38;;;;;;;0.30;0.30;;;;;;;12.00;77.56;99741.47;4974336;28;20038;-54
2020/12/22 16:07:05;;;;;;;5.28;0.55;;;;;;;11.95;75.15;99739.50;4973118;28;20057;-54
2020/12/22 16:09:30;;;;;;;1.33;0.55;;;;;;;11.86;78.13;99742.81;4988814;28;20053;-57
2020/12/22 16:12:03;;;;;;;1.17;0.40;;;;;;;11.79;77.70;99755.66;4988321;28;20037;-56
2020/12/22 16:14:30;;;;;;;0.52;0.47;;;;;;;11.83;77.65;99754.13;4987424;28;20038;-55
2020/12/22 16:17:01;;;;;;;0.20;0.20;;;;;;;11.76;77.47;99743.44;5004685;28;20038;-56
2020/12/22 16:19:29;;;;;;;1.45;0.30;;;;;;;11.83;74.10;99752.25;4992451;28;20319;-55
2020/12/22 16:21:55;;;;;;;0.45;0.30;;;;;;;11.91;75.85;99760.00;5008061;28;20141;-56
2020/12/22 16:24:20;;;;;;;1.02;0.52;;;;;;;11.84;76.72;99750.34;5007953;28;20132;-55
2020/12/22 16:26:46;;;;;;;1.02;0.47;;;;;;;11.76;77.13;99762.38;4990497;28;20041;-56
2020/12/22 16:29:12;;;;;;;0.47;0.43;;;;;;;11.79;76.79;99753.78;4968589;28;20046;-55
2020/12/22 16:31:37;;;;;;;3.03;0.40;;;;;;;11.74;76.19;99755.53;4972113;28;20034;-56
2020/12/22 16:34:03;;;;;;;0.40;0.32;;;;;;;11.64;77.04;99764.25;4971678;28;20495;-55
2020/12/22 16:36:29;;;;;;;0.93;0.50;;;;;;;11.57;77.08;99763.53;4987296;28;20076;-56
2020/12/22 16:38:55;;;;;;;2.65;0.50;;;;;;;11.53;77.29;99770.50;4970332;28;20042;-56
2020/12/22 16:41:21;;;;;;;0.90;0.50;;;;;;;11.49;77.07;99780.97;4972631;28;20139;-56